Latest Coastal Weather Observations for Mornington Island Airport

IDQ60701

Issued at 11:45 pm EST Friday 18 April 2014 (issued every 10 minutes, with the page automatically refreshed every 10 minutes)

About coastal observations | Map of coastal stations | Coastal observations for QLD | Marine services | Other Formats
Station Details ID: 029182 Name: MORNINGTON ISLAND AIRPORT Lat: -16.66 Lon: 139.17 Height: 9.0 m
Data from the previous 72 hours. | See also: Recent months for locations in Queensland
Date/Time
EST
Temp

°C
Wind Pressure Rain
since 9am
mm
Weather Cloud Vis
km
Sea
Height
m
Swell
Dir
 
Speed
knots
Gust
knots
hPa Trend Height
m
Period
s
Dir
18/11:30pm 26.5 NNW 0 0 1013.4 - 0.0 - - - - - - -
18/11:00pm 26.9 NNW 3 3 1013.3 - 0.0 - - - - - - -
18/10:30pm 27.5 NW 4 5 1013.4 - 0.0 - - - - - - -
18/10:00pm 27.5 WNW 4 5 1013.5 - 0.0 - - - - - - -
18/09:30pm 27.6 WNW 5 6 1013.6 - 0.0 - - - - - - -
18/09:00pm 27.2 W 1 4 1013.6 - 0.0 - - - - - - -
18/08:30pm 27.5 W 3 4 1013.3 - 0.0 - - - - - - -
18/08:00pm 27.9 WNW 4 5 1012.9 - 0.0 - - - - - - -
18/07:30pm 28.0 WNW 3 4 1012.5 - 0.0 - - - - - - -
18/07:00pm 27.9 CALM 0 0 1012.3 - 0.0 - - - - - - -
18/06:30pm 28.4 W 4 5 1012.0 - 0.0 - - - - - - -
18/06:00pm 29.4 S 3 4 1012.0 - 0.0 - - - - - - -
18/05:30pm 28.5 N 5 6 1011.6 - 0.0 - - - - - - -
18/05:00pm 29.2 N 6 9 1011.3 - 0.0 - - - - - - -
18/04:30pm 29.6 N 6 8 1011.2 - 0.0 - - - - - - -
18/04:00pm 30.0 SSW 4 6 1011.0 - 0.0 - - - - - - -
18/03:30pm 30.6 NE 6 8 1011.0 - 0.0 - - - - - - -
18/03:00pm 30.8 NE 7 9 1011.2 - 0.0 - - - - - - -
18/02:30pm 31.0 NE 11 15 1011.2 - 0.0 - - - - - - -
18/02:00pm 30.0 NNW 10 13 1011.2 - 0.0 - - - - - - -
18/01:30pm 30.9 N 6 10 1011.4 - 0.0 - - - - - - -
18/01:00pm 29.9 NE 8 11 1011.9 - 0.0 - - - - - - -
18/12:30pm 29.4 ENE 13 16 1012.5 - 0.0 - - - - - - -
18/12:00pm 31.0 ESE 7 13 1013.0 - 0.0 - - - - - - -
18/11:30am 30.6 ESE 10 15 1013.0 - 0.0 - - - - - - -
18/11:00am 29.9 SE 8 13 1013.0 - 0.0 - - - - - - -
18/10:30am 29.2 SE 8 14 1013.2 - 0.0 - - - - - - -
18/10:00am 29.1 SSE 8 14 1013.3 - 0.0 - - - - - - -
18/09:30am 28.4 SSE 8 14 1013.1 - 0.0 - - - - - - -
18/09:00am 27.3 SSE 6 11 1012.8 - 1.4 - - - - - - -
18/08:30am 25.8 S 6 9 1012.7 - 1.4 - - - - - - -
18/08:00am 25.2 SSE 5 11 1012.6 - 1.4 - - - - - - -
18/07:30am 26.0 SSE 10 19 1012.3 - 0.0 - - - - - - -
18/07:00am 27.0 SSE 4 6 1011.6 - 0.0 - - - - - - -
18/06:30am 26.6 SSE 4 6 1011.3 - 0.0 - - - - - - -
18/06:00am 26.5 S 5 6 1011.3 - 0.0 - - - - - - -
18/05:30am 26.5 SSE 4 7 1011.0 - 0.0 - - - - - - -
18/05:00am 26.6 S 4 7 1011.0 - 0.0 - - - - - - -
18/04:30am 26.6 S 4 6 1011.0 - 0.0 - - - - - - -
18/04:00am 26.7 S 4 6 1011.1 - 0.0 - - - - - - -
18/03:30am 26.0 S 4 5 1011.2 - 0.0 - - - - - - -
18/03:00am 25.6 S 4 5 1011.4 - 0.0 - - - - - - -
18/02:30am 25.3 CALM 0 0 1011.3 - 0.0 - - - - - - -
18/02:00am 25.6 CALM 0 0 1011.4 - 0.0 - - - - - - -
18/01:30am 25.8 CALM 0 0 1011.6 - 0.0 - - - - - - -
18/01:00am 26.0 CALM 0 0 1012.0 - 0.0 - - - - - - -
18/12:30am 26.0 CALM 0 0 1012.4 - 0.0 - - - - - - -
18/12:00am 25.8 NE 0 0 1012.9 - 0.0 - - - - - - -
 
Date/Time
EST
Temp

°C
Wind Pressure Rain
since 9am
mm
Weather Cloud Vis
km
Sea
Height
m
Swell
Dir
 
Speed
knots
Gust
knots
hPa Trend Height
m
Period
s
Dir
17/11:30pm 26.0 CALM 0 0 1012.8 - 0.0 - - - - - - -
17/11:00pm 26.0 NE 3 4 1013.1 - 0.0 - - - - - - -
17/10:30pm 26.3 NE 3 4 1013.3 - 0.0 - - - - - - -
17/10:00pm 26.2 CALM 0 0 1013.2 - 0.0 - - - - - - -
17/09:30pm 26.6 CALM 0 0 1013.0 - 0.0 - - - - - - -
17/09:00pm 26.9 CALM 0 4 1013.1 - 0.0 - - - - - - -
17/08:30pm 27.4 E 2 3 1012.6 - 0.0 - - - - - - -
17/08:00pm 27.8 ESE 4 5 1012.2 - 0.0 - - - - - - -
17/07:30pm 27.8 ESE 4 4 1011.8 - 0.0 - - - - - - -
17/07:00pm 28.3 ESE 4 6 1011.5 - 0.0 - - - - - - -
17/06:30pm 28.6 ESE 5 6 1011.3 - 0.0 - - - - - - -
17/06:00pm 29.4 SE 6 8 1011.3 - 0.0 - - - - - - -
17/05:30pm 30.5 SE 6 9 1010.8 - 0.0 - - - - - - -
17/05:00pm 30.8 ESE 6 9 1010.6 - 0.0 - - - - - - -
17/04:30pm 31.1 SE 6 11 1010.4 - 0.0 - - - - - - -
17/04:00pm 30.8 ESE 8 13 1010.3 - 0.0 - - - - - - -
17/03:30pm 31.2 ESE 9 13 1010.5 - 0.0 - - - - - - -
17/03:00pm 30.7 ESE 8 11 1011.0 - 0.0 - - - - - - -
17/02:30pm 30.8 E 9 13 1010.9 - 0.0 - - - - - - -
17/02:00pm 30.8 E 9 13 1011.1 - 0.0 - - - - - - -
17/01:30pm 31.5 ESE 9 14 1011.5 - 0.0 - - - - - - -
17/01:00pm 31.0 E 9 13 1011.7 - 0.0 - - - - - - -
17/12:30pm 28.8 S 8 15 1012.1 - 0.0 - - - - - - -
17/12:00pm 29.2 SE 7 13 1012.8 - 0.0 - - - - - - -
17/11:30am 30.1 ENE 9 12 1013.0 - 0.0 - - - - - - -
17/11:00am 30.5 ENE 6 10 1013.2 - 0.0 - - - - - - -
17/10:30am 29.4 NE 6 9 1013.3 - 0.0 - - - - - - -
17/10:00am 30.2 ENE 9 13 1013.5 - 0.0 - - - - - - -
17/09:30am 29.7 ENE 10 15 1013.3 - 0.0 - - - - - - -
17/09:00am 29.0 E 10 14 1013.3 - 0.0 - - - - - - -
17/08:30am 27.8 E 8 12 1013.0 - 0.0 - - - - - - -
17/08:00am 26.3 ENE 6 9 1012.7 - 0.0 - - - - - - -
17/07:30am 25.3 ENE 6 7 1012.3 - 0.0 - - - - - - -
17/07:00am 25.2 E 5 7 1012.2 - 0.0 - - - - - - -
17/06:30am 25.5 ENE 6 7 1011.9 - 0.0 - - - - - - -
17/06:00am 25.6 ENE 8 11 1011.7 - 0.0 - - - - - - -
17/05:30am 25.9 NE 9 12 1011.3 - 0.0 - - - - - - -
17/05:00am 26.2 ENE 9 13 1011.0 - 0.0 - - - - - - -
17/04:30am 26.7 NE 12 17 1010.7 - 0.0 - - - - - - -
17/04:00am 26.5 E 6 6 1010.4 - 0.0 - - - - - - -
17/03:30am 26.3 E 5 6 1010.3 - 0.0 - - - - - - -
17/03:00am 26.7 E 6 6 1010.8 - 0.0 - - - - - - -
17/02:30am 26.7 ESE 5 6 1010.7 - 0.0 - - - - - - -
17/02:00am 26.9 E 4 6 1010.7 - 0.0 - - - - - - -
17/01:30am 26.9 E 5 6 1011.0 - 0.0 - - - - - - -
17/01:00am 26.7 E 6 6 1011.3 - 0.0 - - - - - - -
17/12:30am 26.3 ENE 5 6 1011.7 - 0.0 - - - - - - -
17/12:00am 26.4 ESE 5 6 1011.8 - 0.0 - - - - - - -
 
Date/Time
EST
Temp

°C
Wind Pressure Rain
since 9am
mm
Weather Cloud Vis
km
Sea
Height
m
Swell
Dir
 
Speed
knots
Gust
knots
hPa Trend Height
m
Period
s
Dir
16/11:30pm 26.3 ESE 4 4 1011.4 - 0.0 - - - - - - -
16/11:00pm 26.5 NE 1 4 1011.6 - 0.0 - - - - - - -
16/10:30pm 26.7 N 1 3 1011.7 - 0.0 - - - - - - -
16/10:00pm 26.7 NE 2 4 1011.8 - 0.0 - - - - - - -
16/09:30pm 26.9 E 4 5 1011.6 - 0.0 - - - - - - -
16/09:00pm 26.9 E 5 6 1011.5 - 0.0 - - - - - - -
16/08:30pm 27.0 SE 4 5 1011.0 - 0.0 - - - - - - -
16/08:00pm 27.2 SE 4 6 1010.8 - 0.0 - - - - - - -
16/07:30pm 27.4 ENE 4 5 1010.3 - 0.0 - - - - - - -
16/07:00pm 27.6 ENE 3 4 1009.9 - 0.0 - - - - - - -
16/06:30pm 27.8 E 5 7 1009.6 - 0.0 - - - - - - -
16/06:00pm 28.2 E 8 11 1009.8 - 0.0 - - - - - - -
16/05:30pm 28.5 ESE 8 11 1009.3 - 0.0 - - - - - - -
16/05:00pm 28.7 ESE 7 10 1009.3 - 0.0 - - - - - - -
16/04:30pm 28.6 SE 8 12 1009.4 - 0.0 - - - - - - -
16/04:00pm 28.7 SSE 8 13 1009.5 - 0.0 - - - - - - -
16/03:30pm 27.4 SE 11 17 1009.6 - 0.0 - - - - - - -
16/03:00pm 28.0 ESE 10 14 1010.2 - 0.0 - - - - - - -
16/02:30pm 28.2 ENE 10 15 1010.1 - 0.0 - - - - - - -
16/02:00pm 29.4 SE 5 8 1010.3 - 0.0 - - - - - - -
16/01:30pm 27.3 NNE 5 7 1010.5 - 0.0 - - - - - - -
16/01:00pm 28.2 SE 8 12 1010.8 - 0.0 - - - - - - -
16/12:30pm 28.5 SE 7 12 1011.0 - 0.0 - - - - - - -
16/12:00pm 29.1 SSE 9 14 1011.3 - 0.0 - - - - - - -
16/11:30am 29.1 SSE 9 13 1011.4 - 0.0 - - - - - - -
16/11:00am 30.2 SSE 6 10 1011.7 - 0.0 - - - - - - -
16/10:30am 29.3 SSE 6 8 1011.9 - 0.0 - - - - - - -
16/10:00am 30.1 S 6 8 1011.8 - 0.0 - - - - - - -
16/09:30am 29.8 S 4 7 1011.8 - 0.0 - - - - - - -
16/09:00am 29.2 SSE 5 7 1011.8 - 0.0 - - - - - - -
16/08:30am 28.6 S 5 7 1011.2 - 0.0 - - - - - - -
16/08:00am 27.9 S 3 5 1011.0 - 0.0 - - - - - - -
16/07:30am 26.5 S 3 4 1011.0 - 0.0 - - - - - - -
16/07:00am 25.8 SSE 3 5 1010.9 - 0.0 - - - - - - -
16/06:30am 25.4 S 3 4 1010.6 - 0.0 - - - - - - -
16/06:00am 25.4 SSE 4 4 1010.4 - 0.0 - - - - - - -
16/05:30am 25.3 CALM 0 0 1009.9 - 0.0 - - - - - - -
16/05:00am 25.5 E 4 5 1009.7 - 0.0 - - - - - - -
16/04:30am 25.5 CALM 0 0 1009.6 - 0.0 - - - - - - -
16/04:00am 25.5 CALM 0 0 1009.5 - 0.0 - - - - - - -
16/03:30am 25.0 CALM 0 0 1009.2 - 0.0 - - - - - - -
16/03:00am 25.4 N 3 4 1009.4 - 0.0 - - - - - - -
16/02:30am 25.1 N 6 7 1009.4 - 0.0 - - - - - - -
16/02:00am 25.2 NNE 5 6 1009.7 - 0.0 - - - - - - -
16/01:30am 25.1 NE 4 5 1009.8 - 0.0 - - - - - - -
16/01:00am 25.2 NE 4 5 1009.9 - 0.0 - - - - - - -
16/12:30am 25.6 NNE 4 5 1010.1 - 0.0 - - - - - - -
16/12:00am 25.8 N 5 5 1010.4 - 0.0 - - - - - - -

Other Formats:

Comma delimited format used in spreadsheet applications
http://www.bom.gov.au/fwo/IDQ60701/IDQ60701.94254.axf

JavaScript Object Notation format (JSON) in row-major order
http://www.bom.gov.au/fwo/IDQ60701/IDQ60701.94254.json